createdAt,value
2018-10-05T00:03:45.936Z,14.98
2018-10-05T00:08:39.601Z,13.20
2018-10-05T00:13:36.819Z,12.58
2018-10-05T00:18:30.293Z,14.78
2018-10-05T00:23:23.528Z,14.78
2018-10-05T00:28:17.223Z,12.90
2018-10-05T00:33:10.867Z,11.55
2018-10-05T00:38:04.528Z,11.53
2018-10-05T00:42:58.414Z,13.53
2018-10-05T00:47:51.578Z,13.13
2018-10-05T00:52:45.200Z,11.50
2018-10-05T00:57:38.407Z,13.35
2018-10-05T01:02:32.016Z,15.13
2018-10-05T01:07:25.334Z,11.93
2018-10-05T01:12:18.714Z,20.95
2018-10-05T01:17:12.130Z,13.53
2018-10-05T01:22:05.643Z,14.90
2018-10-05T01:26:59.400Z,11.43
2018-10-05T01:31:52.654Z,14.90
2018-10-05T01:36:46.084Z,11.30
2018-10-05T01:41:39.390Z,13.83
2018-10-05T01:46:33.038Z,13.08
2018-10-05T01:51:34.599Z,14.35
2018-10-05T01:56:28.062Z,14.90
2018-10-05T02:01:21.964Z,13.40
2018-10-05T02:06:15.548Z,13.08
2018-10-05T02:11:09.475Z,15.30
2018-10-05T02:16:02.942Z,14.90
2018-10-05T02:20:57.484Z,13.62
2018-10-05T02:25:51.949Z,12.73
2018-10-05T02:30:45.795Z,15.05
2018-10-05T02:35:39.902Z,14.20
2018-10-05T02:40:34.546Z,17.07
2018-10-05T02:45:28.275Z,13.93
2018-10-05T02:50:21.538Z,16.60
2018-10-05T02:55:15.436Z,15.72
2018-10-05T03:00:18.929Z,14.13
2018-10-05T03:05:13.137Z,18.10
2018-10-05T03:10:07.275Z,17.20
2018-10-05T03:15:00.580Z,15.00
2018-10-05T03:19:54.075Z,15.10
2018-10-05T03:24:47.397Z,12.65
2018-10-05T03:29:40.990Z,15.55
2018-10-05T03:34:34.288Z,14.13
2018-10-05T03:39:27.480Z,11.97
2018-10-05T03:44:20.794Z,11.97
2018-10-05T03:49:14.425Z,13.22
2018-10-05T03:54:08.217Z,13.88
2018-10-05T03:59:01.937Z,12.60
2018-10-05T04:03:55.308Z,13.10
2018-10-05T04:08:48.623Z,12.25
2018-10-05T04:13:41.880Z,13.78
2018-10-05T04:18:35.168Z,13.25
2018-10-05T04:23:29.044Z,13.58
2018-10-05T04:28:22.258Z,14.33
2018-10-05T04:33:15.773Z,14.85
2018-10-05T04:38:09.493Z,14.33
2018-10-05T04:43:02.828Z,12.43
2018-10-05T04:47:56.554Z,12.30
2018-10-05T04:52:50.519Z,11.95
2018-10-05T04:57:47.069Z,15.05
2018-10-05T05:02:41.040Z,14.38
2018-10-05T05:07:34.347Z,15.35
2018-10-05T05:12:27.695Z,16.67
2018-10-05T05:17:21.017Z,15.32
2018-10-05T05:22:14.269Z,12.03
2018-10-05T05:27:07.767Z,11.68
2018-10-05T05:32:01.133Z,19.77
2018-10-05T05:36:54.379Z,14.10
2018-10-05T05:41:47.682Z,11.83
2018-10-05T05:46:41.060Z,12.58
2018-10-05T05:51:36.764Z,12.58
2018-10-05T05:56:30.023Z,11.48
2018-10-05T06:01:23.945Z,10.48
2018-10-05T06:06:17.649Z,12.78
2018-10-05T06:11:10.934Z,11.78
2018-10-05T06:16:04.264Z,11.75
2018-10-05T06:20:58.389Z,13.62
2018-10-05T06:25:51.653Z,15.28
2018-10-05T06:30:45.037Z,10.50
2018-10-05T06:35:38.310Z,13.15
2018-10-05T06:40:31.771Z,12.78
2018-10-05T06:45:25.598Z,11.90
2018-10-05T06:50:19.170Z,11.55
2018-10-05T06:55:12.556Z,12.53
2018-10-05T07:00:06.742Z,10.05
2018-10-05T07:05:00.029Z,14.70
2018-10-05T07:09:53.285Z,12.53
2018-10-05T07:14:46.595Z,12.13
2018-10-05T07:19:39.920Z,13.72
2018-10-05T07:24:33.197Z,16.25
2018-10-05T07:29:26.402Z,19.07
2018-10-05T07:34:19.701Z,17.17
2018-10-05T07:39:13.039Z,21.65
2018-10-05T07:44:06.331Z,13.95
2018-10-05T07:48:59.711Z,18.97
2018-10-05T07:53:53.124Z,18.48
2018-10-05T07:58:46.434Z,13.53
2018-10-05T08:03:39.906Z,15.50
2018-10-05T08:08:33.147Z,15.05
2018-10-05T08:13:26.437Z,16.62
2018-10-05T08:18:19.764Z,16.47
2018-10-05T08:23:13.089Z,11.88
2018-10-05T08:28:06.292Z,9.50
2018-10-05T08:32:59.569Z,11.70
2018-10-05T08:37:52.867Z,11.05
2018-10-05T08:42:46.181Z,11.25
2018-10-05T08:47:39.544Z,10.65
2018-10-05T08:52:33.015Z,12.37
2018-10-05T08:57:26.232Z,9.25
2018-10-05T09:02:19.476Z,8.00
2018-10-05T09:07:12.836Z,7.00
2018-10-05T09:12:06.107Z,13.30
2018-10-05T09:16:59.855Z,9.08
2018-10-05T09:21:53.094Z,9.40
2018-10-05T09:26:46.450Z,8.90
2018-10-05T09:31:39.790Z,9.33
2018-10-05T09:36:34.593Z,10.80
2018-10-05T09:41:28.268Z,9.85
2018-10-05T09:46:21.457Z,10.60
2018-10-05T09:51:15.044Z,9.20
2018-10-05T09:56:08.308Z,8.68
2018-10-05T10:01:06.931Z,9.40
2018-10-05T10:06:00.673Z,7.00
2018-10-05T10:10:53.871Z,10.48
2018-10-05T10:15:47.179Z,8.68
2018-10-05T10:20:41.164Z,11.15
2018-10-05T10:25:35.048Z,10.58
2018-10-05T10:30:28.387Z,7.33
2018-10-05T10:35:21.743Z,9.95
2018-10-05T10:40:15.449Z,8.73
2018-10-05T10:45:09.362Z,11.30
2018-10-05T10:50:02.601Z,8.85
2018-10-05T10:54:55.897Z,10.08
2018-10-05T10:59:49.140Z,8.58
2018-10-05T11:04:42.555Z,13.10
2018-10-05T11:09:35.788Z,19.60
2018-10-05T11:14:29.012Z,10.68
2018-10-05T11:19:22.299Z,9.28
2018-10-05T11:24:15.865Z,8.23
2018-10-05T11:29:10.429Z,9.48
2018-10-05T11:34:03.571Z,12.82
2018-10-05T11:38:56.774Z,10.82
2018-10-05T11:43:50.155Z,8.10
2018-10-05T11:48:43.421Z,7.92
2018-10-05T11:53:36.816Z,8.58
2018-10-05T11:58:30.279Z,7.62
2018-10-05T12:03:23.728Z,8.35
2018-10-05T12:08:17.185Z,10.58
2018-10-05T12:13:10.497Z,12.03
2018-10-05T12:18:06.082Z,8.30
2018-10-05T12:22:59.415Z,7.67
2018-10-05T12:27:52.616Z,8.50
2018-10-05T12:32:45.874Z,9.33
2018-10-05T12:37:39.148Z,8.90
2018-10-05T12:42:32.427Z,7.62
2018-10-05T12:47:25.790Z,8.98
2018-10-05T12:52:19.037Z,7.50
2018-10-05T12:57:12.255Z,8.23
2018-10-05T13:02:06.021Z,8.50
2018-10-05T13:06:59.491Z,7.05
2018-10-05T13:11:52.742Z,8.93
2018-10-05T13:16:46.027Z,8.78
2018-10-05T13:21:39.232Z,8.15
2018-10-05T13:26:33.023Z,8.53
2018-10-05T13:31:26.342Z,5.60
2018-10-05T13:36:19.624Z,8.38
2018-10-05T13:41:12.996Z,6.45
2018-10-05T13:46:06.335Z,8.08
2018-10-05T13:50:59.662Z,5.17
2018-10-05T13:55:53.935Z,9.50
2018-10-05T14:00:47.122Z,7.03
2018-10-05T14:05:40.437Z,6.70
2018-10-05T14:10:33.749Z,6.12
2018-10-05T14:15:26.924Z,7.50
2018-10-05T14:20:20.445Z,8.15
2018-10-05T14:25:13.953Z,5.35
2018-10-05T14:30:07.818Z,8.40
2018-10-05T14:35:01.506Z,7.60
2018-10-05T14:39:54.891Z,5.20
2018-10-05T14:44:48.287Z,6.35
2018-10-05T14:49:41.648Z,12.55
2018-10-05T14:54:35.188Z,9.98
2018-10-05T15:04:46.737Z,9.18
2018-10-05T15:09:40.148Z,6.12
2018-10-05T15:14:33.308Z,8.20
2018-10-05T15:19:26.630Z,8.08
2018-10-05T15:24:19.989Z,8.13
2018-10-05T15:29:13.344Z,8.28
2018-10-05T15:34:06.674Z,11.08
2018-10-05T15:38:59.942Z,7.15
2018-10-05T15:43:53.153Z,6.78
2018-10-05T15:48:46.608Z,12.23
2018-10-05T15:53:39.947Z,7.60
2018-10-05T15:58:33.477Z,7.15
2018-10-05T16:03:26.962Z,8.18
2018-10-05T16:08:23.881Z,5.20
2018-10-05T16:13:17.681Z,8.10
2018-10-05T16:18:11.910Z,8.50
2018-10-05T16:23:05.574Z,8.63
2018-10-05T16:27:59.173Z,5.00
2018-10-05T16:32:52.660Z,8.53
2018-10-05T16:37:46.018Z,6.08
2018-10-05T16:42:39.304Z,9.93
2018-10-05T16:47:33.496Z,6.72
2018-10-05T16:52:26.933Z,10.75
2018-10-05T16:57:20.362Z,9.58
2018-10-05T17:02:13.739Z,8.40
2018-10-05T17:07:07.381Z,9.05
2018-10-05T17:12:00.700Z,7.85
2018-10-05T17:16:55.199Z,11.83
2018-10-05T17:21:49.152Z,12.65
2018-10-05T17:26:42.697Z,10.10
2018-10-05T17:31:36.896Z,9.70
2018-10-05T17:36:30.444Z,8.30
2018-10-05T17:41:24.379Z,8.78
2018-10-05T17:46:18.110Z,7.47
2018-10-05T17:51:11.550Z,9.75
2018-10-05T17:56:05.485Z,9.48
2018-10-05T18:00:59.131Z,11.18
2018-10-05T18:05:52.488Z,9.33
2018-10-05T18:10:46.037Z,8.03
2018-10-05T18:15:39.452Z,5.87
2018-10-05T18:20:33.780Z,15.93
2018-10-05T18:25:27.155Z,10.65
2018-10-05T18:30:20.547Z,11.80
2018-10-05T18:35:13.923Z,9.38
2018-10-05T18:40:09.117Z,11.78
2018-10-05T18:45:02.758Z,10.98
2018-10-05T18:49:56.307Z,10.05
2018-10-05T18:54:49.828Z,12.05
2018-10-05T18:59:43.287Z,15.80
2018-10-05T19:04:36.767Z,12.30
2018-10-05T19:09:30.226Z,9.43
2018-10-05T19:14:24.122Z,8.73
2018-10-05T19:19:17.644Z,9.38
2018-10-05T19:24:11.114Z,12.88
2018-10-05T19:29:05.439Z,6.40
2018-10-05T19:33:59.024Z,7.60
2018-10-05T19:38:52.603Z,9.90
2018-10-05T19:43:46.559Z,9.80
2018-10-05T19:48:39.880Z,6.80
2018-10-05T19:53:33.278Z,6.25
2018-10-05T19:58:27.622Z,8.38
2018-10-05T20:03:21.138Z,6.60
2018-10-05T20:08:14.498Z,5.83
2018-10-05T20:13:08.474Z,5.40
2018-10-05T20:18:02.333Z,8.20
2018-10-05T20:22:55.768Z,7.45
2018-10-05T20:27:49.775Z,10.68
2018-10-05T20:32:43.971Z,6.90
2018-10-05T20:37:37.578Z,6.30
2018-10-05T20:42:31.380Z,9.55
2018-10-05T20:47:25.458Z,8.20
2018-10-05T20:52:18.881Z,5.92
2018-10-05T20:57:13.024Z,7.05
2018-10-05T21:02:06.903Z,9.25
2018-10-05T21:07:00.503Z,6.03
2018-10-05T21:11:54.167Z,7.92
2018-10-05T21:16:47.632Z,5.67
2018-10-05T21:21:41.559Z,5.65
2018-10-05T21:26:35.314Z,6.70
2018-10-05T21:31:28.728Z,7.22
2018-10-05T21:36:22.585Z,5.17
2018-10-05T21:41:16.249Z,4.47
2018-10-05T21:46:09.656Z,5.53
2018-10-05T21:51:03.578Z,5.87
2018-10-05T21:55:56.928Z,7.35
2018-10-05T22:00:50.374Z,4.53
2018-10-05T22:05:43.773Z,3.77
2018-10-05T22:10:37.361Z,3.80
2018-10-05T22:15:30.706Z,5.00
2018-10-05T22:20:24.115Z,5.00
2018-10-05T22:25:17.559Z,3.87
2018-10-05T22:30:12.216Z,6.62
2018-10-05T22:35:05.628Z,5.00
2018-10-05T22:39:59.880Z,4.30
2018-10-05T22:44:53.207Z,6.03
2018-10-05T22:49:47.518Z,4.62
2018-10-05T22:54:41.375Z,4.78
2018-10-05T22:59:35.081Z,5.53
2018-10-05T23:04:29.558Z,8.55
2018-10-05T23:09:23.358Z,6.05
2018-10-05T23:14:16.742Z,6.75
2018-10-05T23:19:10.080Z,4.25
2018-10-05T23:24:03.514Z,9.03
2018-10-05T23:28:57.442Z,5.78
2018-10-05T23:33:50.823Z,4.97
2018-10-05T23:38:45.159Z,4.28
2018-10-05T23:43:39.090Z,6.00
2018-10-05T23:48:34.501Z,4.22
2018-10-05T23:53:28.370Z,7.05
2018-10-05T23:58:22.731Z,7.10
